• Join FlightAware (Why Join?)
  • Login
  • US Flag 
09:02AM EDT


 

Airport Tracker/Info


-or-


 

Live Flight TrackerFlight Track Log ✈ N2831T ✈ 07-Sep-2013 ✈ KOZW - KHEF

Flight Track Log - Related Links

Times and Time Zones

All times are in EDT time to prevent confusion due to time zone crossing. See the N2831T flight status page for this flight to view local times or setup timezone preferences in your user account.

Time Position Orientation Groundspeed Altitude Reporting Facility
EDT Latitude Longitude Course Direction KTS MPH feet Rate Location/Type
10:28AM 42.5594 -83.7883 225° Southwest 71 82 1,300  Level Cleveland Center
10:30AM 42.5397 -83.8156 225° Southwest 90 104 1,800 300 Climbing Cleveland Center
10:31AM 42.5228 -83.8317 215° Southwest 82 94 2,000 240 Climbing Cleveland Center
10:32AM 42.5019 -83.8333 183° South 87 100 2,300 300 Climbing Cleveland Center
10:33AM 42.4797 -83.8039 136° Southeast 113 130 2,700 360 Climbing Cleveland Center
10:34AM 42.4617 -83.7750 130° Southeast 108 124 3,100 300 Climbing Cleveland Center
10:35AM 42.4417 -83.7458 133° Southeast 107 123 3,400 240 Climbing Cleveland Center
10:36AM 42.4178 -83.7108 133° Southeast 106 122 3,700 300 Climbing Cleveland Center
10:37AM 42.3997 -83.6847 133° Southeast 106 122 4,100 300 Climbing Cleveland Center
10:38AM 42.3817 -83.6500 125° Southeast 110 127 4,400 300 Climbing Cleveland Center
10:39AM 42.3639 -83.6125 123° Southeast 108 124 4,800 360 Climbing Cleveland Center
10:40AM 42.3503 -83.5783 118° Southeast 107 123 5,200 360 Climbing Cleveland Center
10:41AM 42.3325 -83.5464 127° Southeast 104 120 5,600 360 Climbing Cleveland Center
10:42AM 42.3186 -83.5122 119° Southeast 104 120 6,000 120 Climbing Cleveland Center
10:43AM 42.2989 -83.4719 123° Southeast 130 150 5,900  Descending Cleveland Center
10:44AM 42.2789 -83.4344 126° Southeast 119 137 6,000  Climbing Cleveland Center
10:45AM 42.2631 -83.3972 120° Southeast 119 137 6,000  Level Cleveland Center
10:46AM 42.2433 -83.3572 124° Southeast 123 142 6,000 -60 Level Cleveland Center
10:47AM 42.2361 -83.3092 101° East 127 146 5,900 -60 Descending Cleveland Center
10:48AM 42.2267 -83.2639 106° East 125 144 5,900  Level Cleveland Center
10:49AM 42.2153 -83.2214 110° East 126 145 5,900  Level Cleveland Center
10:50AM 42.2058 -83.1761 106° East 122 140 6,000  Climbing Cleveland Center
10:51AM 42.1986 -83.1311 102° East 120 138 6,000 180 Level Cleveland Center
10:52AM 42.1889 -83.0886 107° East 111 128 6,400 300 Climbing Cleveland Center
10:53AM 42.1836 -83.0519 101° East 101 116 6,700 300 Climbing Cleveland Center
10:54AM 42.1739 -83.0122 108° East 106 122 7,100 300 Climbing Cleveland Center
10:55AM 42.1686 -82.9700 100° East 108 124 7,400 240 Climbing Cleveland Center
10:56AM 42.1589 -82.9306 108° East 108 124 7,700 240 Climbing Cleveland Center
10:56AM 42.1550 -82.9192 115° Southeast 110 127 7,800 240 Climbing Cleveland Center
10:57AM 42.1497 -82.8769 100° East 124 143 8,100 300 Climbing Cleveland Center
10:58AM 42.1400 -82.8403 110° East 117 135 8,400 300 Climbing Cleveland Center
10:59AM 42.1283 -82.8006 112° Southeast 112 129 8,700 240 Climbing Cleveland Center
11:00AM 42.1036 -82.7744 142° Southeast 107 123 8,900 120 Climbing Cleveland Center
11:01AM 42.0792 -82.7514 145° Southeast 107 123 9,000  Climbing Cleveland Center
11:02AM 42.0525 -82.7281 147° Southeast 113 130 9,000 -60 Level Cleveland Center
11:03AM 42.0217 -82.7017 148° Southeast 125 144 8,900 -60 Descending Cleveland Center
11:04AM 41.9928 -82.6786 149° Southeast 125 144 8,900  Level Cleveland Center
11:05AM 41.9661 -82.6553 147° Southeast 125 144 8,900  Level Cleveland Center
11:06AM 41.9375 -82.6292 146° Southeast 125 144 8,900  Level Cleveland Center
11:07AM 41.9131 -82.6061 145° Southeast 125 144 9,000  Climbing Cleveland Center
11:08AM 41.8842 -82.5828 149° Southeast 120 138 9,000  Level Cleveland Center
11:09AM 41.8575 -82.5597 147° Southeast 120 138 9,000  Level Cleveland Center
11:10AM 41.8308 -82.5339 144° Southeast 120 138 9,000  Level Cleveland Center
11:11AM 41.8183 -82.5281 161° South 121 139 9,000  Level Cleveland Center
11:11AM 41.8019 -82.5081 138° Southeast 120 138 9,000  Level Cleveland Center
11:12AM 41.7917 -82.4992 147° Southeast 120 138 9,000  Level Cleveland Center
11:12AM 41.7733 -82.4792 141° Southeast 125 144 9,000  Level Cleveland Center
11:13AM 41.7589 -82.4706 156° South 127 146 9,000 -120 Level Cleveland Center
11:13AM 41.7444 -82.4533 138° Southeast 120 138 8,900 -120 Descending Cleveland Center
11:14AM 41.7303 -82.4417 148° Southeast 129 148 8,900  Level Cleveland Center
11:14AM 41.7139 -82.4247 142° Southeast 120 138 8,900  Level Cleveland Center
11:15AM 41.6994 -82.4131 149° Southeast 127 146 8,900  Level Cleveland Center
11:15AM 41.6850 -82.3958 138° Southeast 120 138 8,900  Level Cleveland Center
11:16AM 41.6706 -82.3900 163° South 126 145 8,900 60 Level Cleveland Center
11:16AM 41.6564 -82.3700 133° Southeast 120 138 9,000 60 Climbing Cleveland Center
11:17AM 41.6439 -82.3614 153° Southeast 125 144 9,000  Level Cleveland Center
11:17AM 41.6275 -82.3417 138° Southeast 125 144 9,000  Level Cleveland Center
11:18AM 41.6150 -82.3328 152° Southeast 124 143 9,000  Level Cleveland Center
11:18AM 41.6008 -82.3158 138° Southeast 120 138 9,000  Level Cleveland Center
11:19AM 41.5844 -82.3017 147° Southeast 124 143 9,000  Level Cleveland Center
11:20AM 41.5597 -82.2758 142° Southeast 124 143 9,000  Level Cleveland Center
11:21AM 41.5308 -82.2503 146° Southeast 127 146 9,000 -60 Level Cleveland Center
11:22AM 41.5000 -82.2217 145° Southeast 126 145 8,900  Descending Cleveland Center
11:23AM 41.4733 -82.1961 144° Southeast 125 144 9,000  Climbing Cleveland Center
11:24AM 41.4444 -82.1647 141° Southeast 124 143 8,900  Descending Cleveland Center
11:25AM 41.4136 -82.1364 145° Southeast 127 146 9,000 60 Climbing Cleveland Center
11:25AM 41.4136 -82.1336 90° East 124 143 9,000 -120 Level Cleveland Center
11:26AM 41.3869 -82.1081 144° Southeast 126 145 8,900 -120 Descending Cleveland Center
11:26AM 41.3850 -82.1053 133° Southeast 124 143 8,900 60 Level Cleveland Center
11:27AM 41.3581 -82.0825 148° Southeast 127 146 9,000 60 Climbing Cleveland Center
11:27AM 41.3581 -82.0769 90° East 124 143 9,000  Level Cleveland Center
11:28AM 41.3292 -82.0542 149° Southeast 126 145 9,000  Level Cleveland Center
11:28AM 41.3294 -82.0486 86° East 124 143 9,000  Level Cleveland Center
11:29AM 41.3025 -82.0258 148° Southeast 126 145 9,000  Level Cleveland Center
11:29AM 41.3006 -82.0231 133° Southeast 124 143 9,000  Level Cleveland Center
11:30AM 41.2717 -81.9947 144° Southeast 125 144 9,000  Level Cleveland Center
11:31AM 41.2428 -81.9694 147° Southeast 124 143 9,000  Level Cleveland Center
11:32AM 41.2139 -81.9411 144° Southeast 135 155 9,000 -60 Level Cleveland Center
11:33AM 41.1831 -81.9156 148° Southeast 135 155 8,900 -60 Descending Cleveland Center
11:34AM 41.1603 -81.8906 140° Southeast 135 155 8,900  Level Cleveland Center
11:35AM 41.1314 -81.8650 146° Southeast 130 150 8,900  Level Cleveland Center
11:36AM 41.1025 -81.8397 147° Southeast 125 144 9,000 60 Climbing Cleveland Center
11:37AM 41.0736 -81.8142 146° Southeast 125 144 9,100  Climbing Cleveland Center
11:38AM 41.0469 -81.7864 142° Southeast 125 144 9,000 -60 Descending Cleveland Center
11:39AM 41.0178 -81.7611 147° Southeast 125 144 9,000  Level Cleveland Center
11:40AM 40.9869 -81.7383 151° Southeast 125 144 9,000  Level Cleveland Center
11:41AM 40.9581 -81.7103 144° Southeast 125 144 9,000  Level Cleveland Center
11:42AM 40.9269 -81.6822 146° Southeast 125 144 9,000  Level Cleveland Center
11:43AM 40.8981 -81.6544 144° Southeast 125 144 9,100  Climbing Cleveland Center
11:44AM 40.8711 -81.6292 145° Southeast 125 144 9,100  Level Cleveland Center
11:45AM 40.8422 -81.6014 144° Southeast 125 144 9,100  Level Cleveland Center
11:46AM 40.8111 -81.5733 146° Southeast 125 144 9,100  Level Cleveland Center
11:47AM 40.7844 -81.5483 145° Southeast 125 144 9,100  Level Cleveland Center
11:48AM 40.7553 -81.5206 144° Southeast 125 144 9,100  Level Cleveland Center
11:49AM 40.7244 -81.4928 146° Southeast 125 144 9,100 -60 Level Cleveland Center
11:50AM 40.6933 -81.4622 143° Southeast 125 144 9,000 -60 Descending Cleveland Center
11:51AM 40.6642 -81.4372 147° Southeast 125 144 9,000  Level Cleveland Center
11:52AM 40.6375 -81.4122 145° Southeast 125 144 9,000  Level Cleveland Center
11:53AM 40.6064 -81.3844 146° Southeast 125 144 9,100  Climbing Cleveland Center
11:54AM 40.5794 -81.3486 135° Southeast 125 144 9,100 -60 Level Cleveland Center
11:55AM 40.5506 -81.3181 141° Southeast 125 144 9,000 -60 Descending Cleveland Center
11:56AM 40.5236 -81.2906 142° Southeast 125 144 9,000  Level Cleveland Center
11:57AM 40.4944 -81.2603 142° Southeast 125 144 9,000  Level Cleveland Center
11:58AM 40.4675 -81.2325 142° Southeast 125 144 9,000 -60 Level Cleveland Center
11:59AM 40.4386 -81.2050 144° Southeast 125 144 8,900  Descending Cleveland Center
12:00PM 40.4117 -81.1747 139° Southeast 125 144 9,000  Climbing Cleveland Center
12:01PM 40.3825 -81.1500 147° Southeast 125 144 9,000  Level Cleveland Center
12:02PM 40.3536 -81.1197 141° Southeast 125 144 9,000 -60 Level Cleveland Center
12:03PM 40.3244 -81.0950 147° Southeast 125 144 8,900 -60 Descending Cleveland Center
12:04PM 40.2956 -81.0675 144° Southeast 125 144 8,900  Level Cleveland Center
12:05PM 40.2683 -81.0403 143° Southeast 125 144 8,900  Level Cleveland Center
12:06PM 40.2394 -81.0128 144° Southeast 125 144 8,900  Level Cleveland Center
12:07PM 40.2125 -80.9856 142° Southeast 125 144 8,900  Level Cleveland Center
12:08PM 40.1833 -80.9553 142° Southeast 125 144 8,900  Level Cleveland Center
12:09PM 40.1564 -80.9281 142° Southeast 125 144 9,000  Climbing Cleveland Center
12:10PM 40.1272 -80.8981 142° Southeast 125 144 9,000  Level Cleveland Center
12:11PM 40.1003 -80.8681 140° Southeast 125 144 9,000  Level Cleveland Center
12:12PM 40.0731 -80.8408 143° Southeast 125 144 9,000  Level Cleveland Center
12:13PM 40.0461 -80.8108 140° Southeast 125 144 9,100  Climbing Cleveland Center
12:14PM 40.0192 -80.7783 137° Southeast 125 144 9,100 -60 Level Cleveland Center
12:15PM 39.9983 -80.7403 126° Southeast 125 144 9,000  Descending Cleveland Center
12:16PM 39.9733 -80.7050 133° Southeast 130 150 9,100  Climbing Cleveland Center
12:17PM 39.9525 -80.6669 126° Southeast 130 150 9,000 -60 Descending Cleveland Center
12:18PM 39.9317 -80.6292 126° Southeast 130 150 9,000  Level Cleveland Center
12:19PM 39.9086 -80.5911 128° Southeast 130 150 9,000  Level Cleveland Center
12:20PM 39.8878 -80.5533 126° Southeast 130 150 9,000  Level Cleveland Center
12:21PM 39.8692 -80.5156 123° Southeast 130 150 9,000  Level Cleveland Center
12:22PM 39.8525 -80.4722 117° Southeast 130 150 9,000  Level Cleveland Center
12:23PM 39.8336 -80.4344 123° Southeast 130 150 9,000  Level Cleveland Center
12:24PM 39.8169 -80.3967 120° Southeast 130 150 9,100  Climbing Cleveland Center
12:25PM 39.7981 -80.3561 121° Southeast 125 144 9,100  Level Cleveland Center
12:26PM 39.7792 -80.3156 121° Southeast 125 144 9,100  Level Cleveland Center
12:27PM 39.7625 -80.2778 120° Southeast 125 144 9,100  Level Cleveland Center
12:28PM 39.7456 -80.2403 120° Southeast 125 144 9,200  Climbing Cleveland Center
12:29PM 39.7289 -80.1997 118° Southeast 125 144 9,100 -60 Descending Cleveland Center
12:30PM 39.7100 -80.1594 121° Southeast 125 144 9,100  Level Cleveland Center
12:31PM 39.6931 -80.1244 122° Southeast 125 144 9,100  Level Cleveland Center
12:32PM 39.6722 -80.0869 126° Southeast 125 144 9,100  Level Cleveland Center
12:33PM 39.6553 -80.0464 118° Southeast 125 144 9,100 -60 Level Cleveland Center
12:34PM 39.6364 -80.0089 123° Southeast 125 144 9,000 -60 Descending Cleveland Center
12:35PM 39.6153 -79.9714 126° Southeast 125 144 9,000  Level Cleveland Center
12:36PM 39.5942 -79.9339 126° Southeast 125 144 9,000  Level Cleveland Center
12:37PM 39.5753 -79.8964 123° Southeast 125 144 9,000  Level Cleveland Center
12:38PM 39.5603 -79.8561 116° Southeast 125 144 9,000  Level Cleveland Center
12:39PM 39.5456 -79.8186 117° Southeast 125 144 9,100  Climbing Cleveland Center
12:40PM 39.5306 -79.7783 116° Southeast 120 138 9,100  Level Cleveland Center
12:41PM 39.5136 -79.7383 119° Southeast 120 138 9,100  Level Cleveland Center
12:42PM 39.4989 -79.6981 115° Southeast 120 138 9,100  Level Cleveland Center
12:43PM 39.4861 -79.6578 112° Southeast 120 138 9,100  Level Cleveland Center
12:44PM 39.4675 -79.6106 117° Southeast 117 135 9,100  Level Washington Center
12:45PM 39.4522 -79.5667 114° Southeast 117 135 9,100  Level Washington Center
12:46PM 39.4367 -79.5311 120° Southeast 122 140 9,100  Level Washington Center
12:47PM 39.4214 -79.4872 114° Southeast 122 140 9,100  Level Washington Center
12:48PM 39.4061 -79.4489 117° Southeast 122 140 9,100  Level Washington Center
12:49PM 39.3908 -79.4078 116° Southeast 122 140 9,100  Level Washington Center
12:50PM 39.3753 -79.3667 116° Southeast 122 140 9,100  Level Washington Center
12:51PM 39.3597 -79.3281 118° Southeast 122 140 9,100  Level Washington Center
12:52PM 39.3444 -79.2872 116° Southeast 122 140 9,100 -60 Level Washington Center
12:53PM 39.3228 -79.2431 122° Southeast 128 147 9,000 -120 Descending Washington Center
12:54PM 39.3075 -79.2019 116° Southeast 133 153 8,900  Descending Washington Center
12:55PM 39.2919 -79.1611 116° Southeast 128 147 9,000  Climbing Washington Center
12:56PM 39.2744 -79.1228 121° Southeast 123 142 8,900  Descending Washington Center
12:57PM 39.2608 -79.0817 113° Southeast 123 142 9,000  Climbing Washington Center
12:58PM 39.2475 -79.0436 114° Southeast 123 142 8,900 -60 Descending Washington Center
12:59PM 39.2300 -79.0025 119° Southeast 123 142 8,900  Level Washington Center
01:00PM 39.2122 -78.9642 121° Southeast 123 142 8,900  Level Washington Center
01:01PM 39.1944 -78.9258 121° Southeast 123 142 9,000  Climbing Washington Center
01:02PM 39.1767 -78.8903 123° Southeast 123 142 9,000 -60 Level Washington Center
01:03PM 39.1569 -78.8519 124° Southeast 123 142 8,900 -60 Descending Washington Center
01:04PM 39.1392 -78.8111 119° Southeast 123 142 8,900  Level Washington Center
01:05PM 39.1214 -78.7781 125° Southeast 123 142 8,900  Level Washington Center
01:06PM 39.1017 -78.7397 124° Southeast 123 142 9,000  Climbing Washington Center
01:07PM 39.0836 -78.7042 123° Southeast 123 142 9,000  Level Washington Center
01:08PM 39.0658 -78.6661 121° Southeast 123 142 9,000  Level Washington Center
01:09PM 39.0481 -78.6281 121° Southeast 123 142 9,000  Level Washington Center
01:10PM 39.0283 -78.5897 124° Southeast 123 142 9,000  Level Washington Center
01:11PM 39.0125 -78.5489 117° Southeast 123 142 9,000 -60 Level Washington Center
01:12PM 38.9947 -78.5108 121° Southeast 123 142 8,900 -60 Descending Washington Center
01:13PM 38.9792 -78.4703 116° Southeast 123 142 8,900  Level Washington Center
01:14PM 38.9611 -78.4322 121° Southeast 123 142 8,900  Level Washington Center
01:15PM 38.9433 -78.3939 121° Southeast 123 142 8,900  Level Washington Center
01:16PM 38.9256 -78.3533 119° Southeast 123 142 8,900 -240 Level Washington Center
01:18PM 38.9000 -78.2667 111° Southeast 146 168 8,300 -420 Descending Potomac TRACON
01:19PM 38.9000 -78.2167 90° East 152 175 7,800 -600 Descending Potomac TRACON
01:20PM 38.8833 -78.1667 113° Southeast 153 176 7,200 -660 Descending Potomac TRACON
01:21PM 38.8667 -78.1167 113° Southeast 155 178 6,500 -600 Descending Potomac TRACON
01:22PM 38.8500 -78.0667 113° Southeast 147 169 6,000 -600 Descending Potomac TRACON
01:23PM 38.8500 -78.0167 90° East 149 171 5,400 -660 Descending Potomac TRACON
01:24PM 38.8333 -77.9667 113° Southeast 148 170 4,800 -540 Descending Potomac TRACON
01:25PM 38.8167 -77.9167 113° Southeast 139 160 4,400 -480 Descending Potomac TRACON
01:26PM 38.8167 -77.8667 90° East 129 148 3,900 -420 Descending Potomac TRACON
01:27PM 38.8000 -77.8333 123° Southeast 125 144 3,600 -360 Descending Potomac TRACON
01:28PM 38.8000 -77.7833 90° East 128 147 3,200 -360 Descending Potomac TRACON
01:29PM 38.8000 -77.7333 90° East 126 145 2,900 -300 Descending Potomac TRACON
01:30PM 38.7833 -77.7000 123° Southeast 125 144 2,600 -420 Descending Potomac TRACON
01:31PM 38.7833 -77.6500 90° East 127 146 2,100 -480 Descending Potomac TRACON
01:32PM 38.7667 -77.6000 113° Southeast 122 140 1,700 -420 Descending Potomac TRACON
01:33PM 38.7667 -77.5667 90° East 103 119 1,300 -480 Descending Potomac TRACON
01:34PM 38.7500 -77.5333 123° Southeast 99 114 800 -540 Descending Potomac TRACON
01:36PM 38.7210 -77.5151 103° East  Level Estimated
01:43PM 38.7210 -77.5151 103° East  Level Estimated
01:44PM 38.7210 -77.5151 103° East  Level Estimated
01:45PM 38.7210 -77.5151 103° East  Level Estimated
01:46PM 38.7210 -77.5151 103° East  Level Estimated
01:47PM 38.7210 -77.5151 103° East  Level Estimated
01:48PM 38.7210 -77.5151 103° East  Level Estimated
01:49PM 38.7210 -77.5151 103° East  Level Estimated
01:50PM 38.7210 -77.5151 103° East  Level Estimated
01:51PM 38.7210 -77.5151 103° East  Level Estimated